createdAt,value
2023-01-02T00:00:57.434Z,3.93
2023-01-02T00:03:27.415Z,4.90
2023-01-02T00:09:25.507Z,4.80
2023-01-02T00:11:53.785Z,5.23
2023-01-02T00:14:43.457Z,5.37
2023-01-02T00:17:11.007Z,4.87
2023-01-02T00:19:38.664Z,5.60
2023-01-02T00:22:06.282Z,4.87
2023-01-02T00:24:35.239Z,4.80
2023-01-02T00:27:02.782Z,4.40
2023-01-02T00:29:30.327Z,4.97
2023-01-02T00:31:57.846Z,4.90
2023-01-02T00:34:25.502Z,5.00
2023-01-02T00:36:53.211Z,5.00
2023-01-02T00:39:20.903Z,5.43
2023-01-02T00:41:49.742Z,4.90
2023-01-02T00:44:17.275Z,5.80
2023-01-02T00:46:44.730Z,4.87
2023-01-02T00:49:12.203Z,5.23
2023-01-02T00:51:39.681Z,5.17
2023-01-02T00:54:07.385Z,5.67
2023-01-02T00:56:34.880Z,5.10
2023-01-02T00:59:03.899Z,5.00
2023-01-02T01:01:31.574Z,5.30
2023-01-02T01:03:59.096Z,5.40
2023-01-02T01:06:26.549Z,4.83
2023-01-02T01:08:54.009Z,5.27
2023-01-02T01:11:21.500Z,5.30
2023-01-02T01:13:49.014Z,4.60
2023-01-02T01:16:20.209Z,4.93
2023-01-02T01:18:48.022Z,5.20
2023-01-02T01:21:17.262Z,4.03
2023-01-02T01:23:45.404Z,6.00
2023-01-02T01:26:14.137Z,5.20
2023-01-02T01:28:41.955Z,5.93
2023-01-02T01:31:10.942Z,5.03
2023-01-02T01:33:40.815Z,5.10
2023-01-02T01:36:10.584Z,5.10
2023-01-02T01:38:38.454Z,6.97
2023-01-02T01:41:06.561Z,5.63
2023-01-02T01:43:42.533Z,5.17
2023-01-02T01:46:17.448Z,4.80
2023-01-02T01:48:47.254Z,6.57
2023-01-02T01:51:15.340Z,5.00
2023-01-02T01:53:43.245Z,5.90
2023-01-02T01:56:11.955Z,4.80
2023-01-02T01:58:43.096Z,4.50
2023-01-02T02:01:12.599Z,5.30
2023-01-02T02:03:42.426Z,5.00
2023-01-02T02:06:11.389Z,4.47
2023-01-02T02:08:43.988Z,4.77
2023-01-02T02:11:12.796Z,5.37
2023-01-02T02:13:40.425Z,4.67
2023-01-02T02:16:18.463Z,4.90
2023-01-02T02:19:08.365Z,4.40
2023-01-02T02:21:53.856Z,5.00
2023-01-02T02:24:47.535Z,5.87
2023-01-02T02:27:26.526Z,3.97
2023-01-02T02:30:09.471Z,5.77
2023-01-02T02:32:52.749Z,4.37
2023-01-02T02:35:27.442Z,4.27
2023-01-02T02:37:59.397Z,4.40
2023-01-02T02:40:34.638Z,4.20
2023-01-02T02:43:08.784Z,4.23
2023-01-02T02:45:46.286Z,4.80
2023-01-02T02:48:18.086Z,5.37
2023-01-02T02:50:49.571Z,4.83
2023-01-02T02:53:20.894Z,5.03
2023-01-02T02:55:49.925Z,4.87
2023-01-02T02:58:17.957Z,4.50
2023-01-02T03:00:46.833Z,4.43
2023-01-02T03:03:16.579Z,4.80
2023-01-02T03:05:51.042Z,4.67
2023-01-02T03:08:28.100Z,4.50
2023-01-02T03:11:00.158Z,4.50
2023-01-02T03:13:41.407Z,4.03
2023-01-02T03:16:13.549Z,4.80
2023-01-02T03:18:46.714Z,4.87
2023-01-02T03:21:16.961Z,4.07
2023-01-02T03:23:46.575Z,4.80
2023-01-02T03:26:17.186Z,4.70
2023-01-02T03:28:47.869Z,4.70
2023-01-02T03:31:19.184Z,4.60
2023-01-02T03:33:49.826Z,4.80
2023-01-02T03:36:18.629Z,5.20
2023-01-02T03:38:49.424Z,4.83
2023-01-02T03:41:20.700Z,4.40
2023-01-02T03:43:54.837Z,3.70
2023-01-02T03:46:31.401Z,4.70
2023-01-02T03:49:01.747Z,4.57
2023-01-02T03:51:29.270Z,3.63
2023-01-02T03:53:56.830Z,3.87
2023-01-02T03:56:30.473Z,3.90
2023-01-02T03:59:01.242Z,4.67
2023-01-02T04:01:37.111Z,3.90
2023-01-02T04:04:09.530Z,3.73
2023-01-02T04:06:39.610Z,3.77
2023-01-02T04:09:08.985Z,3.87
2023-01-02T04:11:38.741Z,3.80
2023-01-02T04:14:11.434Z,4.13
2023-01-02T04:16:42.337Z,4.57
2023-01-02T04:19:11.822Z,3.40
2023-01-02T04:21:41.323Z,3.80
2023-01-02T04:24:12.157Z,4.93
2023-01-02T04:26:43.164Z,4.40
2023-01-02T04:29:10.698Z,4.50
2023-01-02T04:31:42.855Z,4.70
2023-01-02T04:34:12.670Z,4.73
2023-01-02T04:36:40.874Z,3.47
2023-01-02T04:39:08.559Z,5.03
2023-01-02T04:41:36.468Z,3.43
2023-01-02T04:44:03.959Z,3.80
2023-01-02T04:46:31.469Z,4.17
2023-01-02T04:49:00.354Z,3.93
2023-01-02T04:51:27.848Z,4.20
2023-01-02T04:53:55.317Z,4.00
2023-01-02T04:56:23.533Z,3.13
2023-01-02T04:58:51.190Z,3.83
2023-01-02T05:01:20.452Z,3.63
2023-01-02T05:03:51.303Z,3.50
2023-01-02T05:06:20.232Z,3.70
2023-01-02T05:08:47.732Z,3.77
2023-01-02T05:11:17.161Z,3.50
2023-01-02T05:13:45.213Z,3.60
2023-01-02T05:16:13.058Z,3.57
2023-01-02T05:18:40.627Z,3.90
2023-01-02T05:21:31.523Z,3.63
2023-01-02T05:24:00.770Z,4.00
2023-01-02T05:26:30.673Z,4.00
2023-01-02T05:28:58.158Z,3.40
2023-01-02T05:31:25.706Z,3.20
2023-01-02T05:33:53.622Z,3.80
2023-01-02T05:36:21.830Z,2.77
2023-01-02T05:38:49.574Z,2.70
2023-01-02T05:41:18.468Z,2.97
2023-01-02T05:43:46.113Z,3.13
2023-01-02T05:46:15.218Z,3.17
2023-01-02T05:48:43.218Z,3.57
2023-01-02T05:51:12.879Z,3.13
2023-01-02T05:53:40.522Z,3.00
2023-01-02T05:56:09.426Z,2.53
2023-01-02T05:58:39.748Z,2.67
2023-01-02T06:01:08.230Z,2.97
2023-01-02T06:03:36.198Z,3.07
2023-01-02T06:06:04.981Z,3.50
2023-01-02T06:08:32.821Z,2.07
2023-01-02T06:11:00.715Z,3.83
2023-01-02T06:13:29.520Z,3.07
2023-01-02T06:15:59.205Z,3.47
2023-01-02T06:18:27.377Z,3.00
2023-01-02T06:20:59.052Z,2.87
2023-01-02T06:23:26.602Z,2.67
2023-01-02T06:25:54.225Z,2.83
2023-01-02T06:28:21.855Z,3.07
2023-01-02T06:30:49.392Z,3.60
2023-01-02T06:33:18.177Z,3.93
2023-01-02T06:35:45.720Z,3.17
2023-01-02T06:38:13.186Z,2.97
2023-01-02T06:40:40.683Z,3.00
2023-01-02T06:43:08.152Z,3.03
2023-01-02T06:45:35.681Z,4.60
2023-01-02T06:48:03.179Z,3.23
2023-01-02T06:50:35.057Z,2.93
2023-01-02T06:53:02.831Z,3.17
2023-01-02T06:55:30.279Z,3.43
2023-01-02T06:58:00.940Z,4.50
2023-01-02T07:00:33.200Z,4.27
2023-01-02T07:03:00.826Z,3.60
2023-01-02T07:05:28.338Z,4.17
2023-01-02T07:07:57.288Z,3.20
2023-01-02T07:10:24.807Z,4.37
2023-01-02T07:12:52.257Z,4.13
2023-01-02T07:15:19.717Z,4.47
2023-01-02T07:17:47.255Z,4.73
2023-01-02T07:20:14.874Z,4.63
2023-01-02T07:22:42.404Z,4.50
2023-01-02T07:25:11.243Z,4.60
2023-01-02T07:27:39.106Z,3.60
2023-01-02T07:30:07.618Z,3.97
2023-01-02T07:32:35.151Z,3.83
2023-01-02T07:35:03.406Z,4.60
2023-01-02T07:37:30.961Z,3.70
2023-01-02T07:39:58.389Z,4.10
2023-01-02T07:42:27.174Z,4.37
2023-01-02T07:44:54.627Z,5.17
2023-01-02T07:47:22.100Z,6.40
2023-01-02T07:49:49.559Z,4.03
2023-01-02T07:52:17.129Z,5.50
2023-01-02T07:54:44.596Z,4.93
2023-01-02T07:57:13.637Z,4.20
2023-01-02T07:59:44.863Z,3.80
2023-01-02T08:02:12.504Z,3.07
2023-01-02T08:04:40.164Z,2.73
2023-01-02T08:07:07.699Z,3.23
2023-01-02T08:09:35.156Z,2.83
2023-01-02T08:12:02.644Z,3.30
2023-01-02T08:14:30.106Z,3.03
2023-01-02T08:16:58.991Z,2.77
2023-01-02T08:19:27.027Z,2.77
2023-01-02T08:21:54.524Z,2.80
2023-01-02T08:24:22.047Z,2.33
2023-01-02T08:26:49.597Z,2.40
2023-01-02T08:29:17.149Z,3.20
2023-01-02T08:31:44.633Z,3.00
2023-01-02T08:34:14.986Z,2.20
2023-01-02T08:36:42.506Z,2.53
2023-01-02T08:39:10.087Z,2.50
2023-01-02T08:41:39.243Z,1.90
2023-01-02T08:44:07.418Z,2.47
2023-01-02T08:46:42.166Z,3.63
2023-01-02T08:49:12.414Z,2.63
2023-01-02T08:51:41.270Z,2.50
2023-01-02T08:54:08.805Z,3.80
2023-01-02T08:56:37.560Z,2.87
2023-01-02T08:59:06.934Z,2.20
2023-01-02T09:01:35.312Z,3.10
2023-01-02T09:04:11.131Z,2.60
2023-01-02T09:06:42.267Z,3.73
2023-01-02T09:09:12.389Z,3.10
2023-01-02T09:11:43.717Z,2.93
2023-01-02T09:14:11.172Z,2.80
2023-01-02T09:16:38.640Z,2.80
2023-01-02T09:19:06.156Z,3.03
2023-01-02T09:21:33.618Z,3.13
2023-01-02T09:24:02.533Z,2.43
2023-01-02T09:26:30.029Z,2.33
2023-01-02T09:28:57.547Z,2.60
2023-01-02T09:31:25.020Z,3.20
2023-01-02T09:33:54.408Z,2.43
2023-01-02T09:36:22.278Z,3.70
2023-01-02T09:38:53.525Z,2.77
2023-01-02T09:41:31.364Z,2.20
2023-01-02T09:44:01.339Z,2.90
2023-01-02T09:46:34.732Z,2.50
2023-01-02T09:49:02.720Z,2.00
2023-01-02T09:51:30.708Z,3.03
2023-01-02T09:53:58.324Z,2.57
2023-01-02T09:56:33.746Z,1.70
2023-01-02T09:59:10.270Z,2.87
2023-01-02T10:01:43.854Z,2.37
2023-01-02T10:04:19.203Z,2.33
2023-01-02T10:06:49.009Z,1.63
2023-01-02T10:09:19.709Z,2.03
2023-01-02T10:11:55.101Z,1.37
2023-01-02T10:14:37.358Z,2.43
2023-01-02T10:17:11.374Z,1.93
2023-01-02T10:19:43.393Z,2.03
2023-01-02T10:22:13.454Z,2.60
2023-01-02T10:24:44.476Z,1.70
2023-01-02T10:27:17.454Z,2.07
2023-01-02T10:29:49.888Z,2.27
2023-01-02T10:32:18.245Z,2.20
2023-01-02T10:34:51.165Z,2.23
2023-01-02T10:37:19.194Z,2.07
2023-01-02T10:39:50.181Z,1.70
2023-01-02T10:42:20.174Z,2.20
2023-01-02T10:44:48.186Z,2.00
2023-01-02T10:47:21.365Z,2.00
2023-01-02T10:49:50.005Z,1.37
2023-01-02T10:52:22.608Z,2.10
2023-01-02T10:54:59.625Z,1.90
2023-01-02T10:57:39.977Z,1.80
2023-01-02T11:00:09.331Z,2.57
2023-01-02T11:02:39.229Z,2.17
2023-01-02T11:05:09.020Z,2.07
2023-01-02T11:07:39.760Z,2.20
2023-01-02T11:10:23.468Z,3.40
2023-01-02T11:12:52.278Z,2.50
2023-01-02T11:15:25.382Z,3.23
2023-01-02T11:17:53.085Z,2.17
2023-01-02T11:20:26.050Z,2.03
2023-01-02T11:22:56.015Z,2.77
2023-01-02T11:25:26.006Z,2.50
2023-01-02T11:27:57.988Z,2.00
2023-01-02T11:30:33.689Z,2.80
2023-01-02T11:33:09.719Z,2.27
2023-01-02T11:35:45.237Z,3.30
2023-01-02T11:38:23.175Z,2.57
2023-01-02T11:40:59.975Z,2.77
2023-01-02T11:43:54.229Z,3.00
2023-01-02T11:46:30.077Z,3.40
2023-01-02T11:49:03.419Z,2.93
2023-01-02T11:51:33.296Z,2.70
2023-01-02T11:54:04.065Z,2.10
2023-01-02T11:56:33.980Z,3.37
2023-01-02T11:59:04.880Z,2.13
2023-01-02T12:01:39.344Z,2.87
2023-01-02T12:04:07.071Z,3.87
2023-01-02T12:06:42.674Z,2.27
2023-01-02T12:09:12.199Z,2.30
2023-01-02T12:11:52.385Z,2.70
2023-01-02T12:14:22.915Z,2.27
2023-01-02T12:16:53.500Z,2.20
2023-01-02T12:19:37.996Z,2.10
2023-01-02T12:22:19.375Z,2.50
2023-01-02T12:24:54.427Z,3.00
2023-01-02T12:27:26.505Z,3.00
2023-01-02T12:30:04.306Z,2.17
2023-01-02T12:32:53.493Z,3.47
2023-01-02T12:35:51.085Z,3.37
2023-01-02T12:38:30.098Z,2.47
2023-01-02T12:41:10.536Z,2.37
2023-01-02T12:44:08.563Z,2.57
2023-01-02T12:46:48.801Z,2.70
2023-01-02T12:49:25.435Z,2.77
2023-01-02T12:51:59.096Z,2.07
2023-01-02T12:54:38.432Z,2.53
2023-01-02T12:57:15.740Z,2.10
2023-01-02T13:00:02.422Z,3.10
2023-01-02T13:02:42.862Z,2.60
2023-01-02T13:05:14.099Z,3.70
2023-01-02T13:07:46.675Z,2.50
2023-01-02T13:10:16.734Z,2.50
2023-01-02T13:12:45.279Z,2.60
2023-01-02T13:15:19.153Z,3.23
2023-01-02T13:17:57.352Z,2.43
2023-01-02T13:20:33.288Z,3.20
2023-01-02T13:23:06.126Z,2.73
2023-01-02T13:25:34.058Z,2.40
2023-01-02T13:28:05.735Z,3.77
2023-01-02T13:30:44.855Z,2.33
2023-01-02T13:33:22.808Z,2.40
2023-01-02T13:35:50.715Z,4.13
2023-01-02T13:38:19.656Z,2.90
2023-01-02T13:40:55.815Z,3.43
2023-01-02T13:43:27.554Z,2.90
2023-01-02T13:45:56.818Z,2.60
2023-01-02T13:48:31.912Z,3.00
2023-01-02T13:51:01.014Z,3.70
2023-01-02T13:53:34.462Z,2.90
2023-01-02T13:56:05.425Z,3.27
2023-01-02T13:58:59.377Z,2.40
2023-01-02T14:02:07.115Z,2.60
2023-01-02T14:04:43.558Z,3.10
2023-01-02T14:07:42.799Z,2.83
2023-01-02T14:10:31.223Z,3.17
2023-01-02T14:13:03.430Z,2.40
2023-01-02T14:15:33.759Z,2.40
2023-01-02T14:18:04.874Z,2.63
2023-01-02T14:20:35.831Z,2.30
2023-01-02T14:23:05.181Z,2.23
2023-01-02T14:25:33.227Z,2.53
2023-01-02T14:28:03.054Z,2.93
2023-01-02T14:30:33.551Z,3.30
2023-01-02T14:33:01.852Z,2.60
2023-01-02T14:35:36.062Z,2.87
2023-01-02T14:38:16.579Z,2.23
2023-01-02T14:40:45.412Z,2.20
2023-01-02T14:43:31.047Z,4.90
2023-01-02T14:46:04.069Z,2.67
2023-01-02T14:48:36.120Z,2.50
2023-01-02T14:51:07.871Z,1.93
2023-01-02T14:53:38.507Z,2.40
2023-01-02T14:56:11.649Z,2.80
2023-01-02T14:58:41.255Z,3.47
2023-01-02T15:01:09.267Z,4.00
2023-01-02T15:03:49.126Z,3.60
2023-01-02T15:06:24.662Z,3.20
2023-01-02T15:08:53.957Z,4.13
2023-01-02T15:11:40.942Z,4.27
2023-01-02T15:14:11.174Z,4.30
2023-01-02T15:16:43.440Z,3.73
2023-01-02T15:19:17.354Z,4.00
2023-01-02T15:21:46.577Z,4.03
2023-01-02T15:24:22.746Z,1.37
2023-01-02T15:26:50.432Z,2.27
2023-01-02T15:29:23.912Z,2.80
2023-01-02T15:31:54.137Z,2.07
2023-01-02T15:34:29.617Z,3.07
2023-01-02T15:36:59.501Z,1.83
2023-01-02T15:39:33.268Z,2.03
2023-01-02T15:42:04.153Z,2.10
2023-01-02T15:44:54.420Z,2.17
2023-01-02T15:47:27.640Z,2.70
2023-01-02T15:49:57.300Z,2.60
2023-01-02T15:52:30.035Z,2.43
2023-01-02T15:54:57.731Z,2.93
2023-01-02T15:57:27.827Z,2.87
2023-01-02T15:59:55.723Z,2.80
2023-01-02T16:02:42.742Z,2.77
2023-01-02T16:05:13.461Z,3.00
2023-01-02T16:07:42.577Z,2.67
2023-01-02T16:10:17.543Z,2.50
2023-01-02T16:12:51.001Z,3.70
2023-01-02T16:15:21.168Z,2.50
2023-01-02T16:17:49.157Z,2.93
2023-01-02T16:20:21.318Z,3.10
2023-01-02T16:22:53.279Z,3.63
2023-01-02T16:25:22.989Z,3.07
2023-01-02T16:27:53.972Z,3.30
2023-01-02T16:30:33.250Z,2.90
2023-01-02T16:33:02.595Z,2.60
2023-01-02T16:35:31.252Z,3.10
2023-01-02T16:38:01.051Z,2.70
2023-01-02T16:40:59.794Z,2.20
2023-01-02T16:43:30.498Z,2.00
2023-01-02T16:45:59.301Z,2.93
2023-01-02T16:48:29.846Z,1.80
2023-01-02T16:50:58.868Z,2.57
2023-01-02T16:53:31.481Z,2.30
2023-01-02T16:55:59.590Z,2.53
2023-01-02T16:58:27.616Z,3.20
2023-01-02T17:00:56.652Z,3.17
2023-01-02T17:03:27.126Z,2.87
2023-01-02T17:06:02.418Z,3.20
2023-01-02T17:08:33.754Z,3.60
2023-01-02T17:11:01.398Z,2.93
2023-01-02T17:13:29.847Z,2.83
2023-01-02T17:15:57.760Z,3.27
2023-01-02T17:18:26.121Z,2.17
2023-01-02T17:20:53.864Z,3.27
2023-01-02T17:23:21.698Z,2.37
2023-01-02T17:25:50.565Z,3.03
2023-01-02T17:28:18.234Z,2.57
2023-01-02T17:30:48.938Z,3.40
2023-01-02T17:33:16.910Z,3.07
2023-01-02T17:35:46.071Z,2.87
2023-01-02T17:38:14.122Z,2.53
2023-01-02T17:40:41.737Z,2.97
2023-01-02T17:43:11.072Z,2.23
2023-01-02T17:45:38.664Z,2.93
2023-01-02T17:48:11.466Z,1.87
2023-01-02T17:50:40.016Z,2.50
2023-01-02T17:53:07.714Z,2.30
2023-01-02T17:55:35.440Z,2.03
2023-01-02T17:58:02.980Z,2.07
2023-01-02T18:00:32.094Z,2.30
2023-01-02T18:02:59.711Z,2.50
2023-01-02T18:05:27.335Z,2.70
2023-01-02T18:07:55.008Z,2.23
2023-01-02T18:10:25.982Z,1.77
2023-01-02T18:12:56.941Z,1.47
2023-01-02T18:15:24.696Z,1.43
2023-01-02T18:17:53.806Z,1.67
2023-01-02T18:20:22.890Z,1.80
2023-01-02T18:22:51.197Z,1.47
2023-01-02T18:25:21.466Z,1.53
2023-01-02T18:27:49.458Z,1.70
2023-01-02T18:30:21.179Z,1.90
2023-01-02T18:32:49.322Z,1.47
2023-01-02T18:35:55.621Z,1.30
2023-01-02T18:38:18.055Z,1.17
2023-01-02T18:40:45.893Z,2.20
2023-01-02T18:43:20.497Z,1.23
2023-01-02T18:45:50.598Z,1.40
2023-01-02T18:48:20.039Z,1.40
2023-01-02T18:50:57.945Z,1.20
2023-01-02T18:53:29.084Z,1.40
2023-01-02T18:56:03.225Z,1.40
2023-01-02T18:58:40.691Z,1.10
2023-01-02T19:01:27.752Z,1.87
2023-01-02T19:04:01.819Z,1.57
2023-01-02T19:06:31.112Z,2.20
2023-01-02T19:09:03.299Z,1.90
2023-01-02T19:11:52.043Z,1.70
2023-01-02T19:14:23.225Z,1.60
2023-01-02T19:16:53.700Z,1.40
2023-01-02T19:19:25.822Z,1.23
2023-01-02T19:21:55.904Z,1.67
2023-01-02T19:24:24.545Z,1.20
2023-01-02T19:26:57.132Z,1.40
2023-01-02T19:29:26.345Z,1.20
2023-01-02T19:32:04.568Z,1.33
2023-01-02T19:34:41.435Z,1.33
2023-01-02T19:37:40.164Z,1.90
2023-01-02T19:40:18.601Z,1.80
2023-01-02T19:42:47.077Z,2.03
2023-01-02T19:45:16.196Z,1.50
2023-01-02T19:47:44.095Z,1.30
2023-01-02T19:50:13.452Z,1.57
2023-01-02T19:52:42.681Z,1.53
2023-01-02T19:55:11.631Z,1.60
2023-01-02T19:57:39.201Z,1.47
2023-01-02T20:00:10.009Z,1.60
2023-01-02T20:02:37.832Z,1.17
2023-01-02T20:05:06.565Z,1.30
2023-01-02T20:07:34.161Z,1.93
2023-01-02T20:10:03.085Z,1.50
2023-01-02T20:12:35.494Z,1.50
2023-01-02T20:15:04.711Z,1.30
2023-01-02T20:17:32.555Z,1.77
2023-01-02T20:20:00.494Z,1.90
2023-01-02T20:22:28.292Z,1.50
2023-01-02T20:24:55.959Z,1.73
2023-01-02T20:27:25.227Z,1.90
2023-01-02T20:29:55.045Z,1.43
2023-01-02T20:32:23.055Z,1.30
2023-01-02T20:34:50.676Z,1.23
2023-01-02T20:37:20.962Z,1.60
2023-01-02T20:39:49.854Z,1.43
2023-01-02T20:42:17.745Z,1.57
2023-01-02T20:44:46.766Z,1.70
2023-01-02T20:47:16.521Z,1.50
2023-01-02T20:49:44.306Z,1.20
2023-01-02T20:52:11.967Z,1.20
2023-01-02T20:54:39.677Z,1.17
2023-01-02T20:57:07.222Z,1.93
2023-01-02T20:59:34.813Z,1.50
2023-01-02T21:02:04.100Z,1.60
2023-01-02T21:04:36.550Z,1.70
2023-01-02T21:07:04.862Z,1.37
2023-01-02T21:09:32.438Z,1.20
2023-01-02T21:11:59.972Z,2.10
2023-01-02T21:14:30.043Z,1.30
2023-01-02T21:17:05.182Z,1.27
2023-01-02T21:19:32.839Z,1.20
2023-01-02T21:22:00.500Z,1.50
2023-01-02T21:24:28.053Z,1.57
2023-01-02T21:26:55.580Z,1.97
2023-01-02T21:29:23.187Z,1.33
2023-01-02T21:31:50.826Z,1.43
2023-01-02T21:34:19.858Z,1.40
2023-01-02T21:36:47.604Z,1.50
2023-01-02T21:39:15.328Z,1.83
2023-01-02T21:42:00.599Z,1.30
2023-01-02T21:44:28.140Z,1.60
2023-01-02T21:46:56.514Z,1.30
2023-01-02T21:49:26.666Z,1.30
2023-01-02T21:51:54.310Z,1.30
2023-01-02T21:54:22.341Z,1.30
2023-01-02T21:56:49.851Z,1.37
2023-01-02T21:59:17.485Z,1.10
2023-01-02T22:01:45.290Z,1.10
2023-01-02T22:04:13.153Z,1.30
2023-01-02T22:07:20.714Z,1.10
2023-01-02T22:09:29.702Z,1.53
2023-01-02T22:11:57.270Z,0.87
2023-01-02T22:14:27.621Z,1.00
2023-01-02T22:16:55.477Z,1.03
2023-01-02T22:19:26.413Z,1.43
2023-01-02T22:21:55.938Z,1.30
2023-01-02T22:24:26.267Z,1.00
2023-01-02T22:26:55.727Z,0.83
2023-01-02T22:29:33.124Z,1.73
2023-01-02T22:32:11.990Z,1.07
2023-01-02T22:34:43.459Z,1.07
2023-01-02T22:37:16.900Z,0.90
2023-01-02T22:39:47.823Z,1.27
2023-01-02T22:42:59.720Z,1.03
2023-01-02T22:45:27.509Z,0.90
2023-01-02T22:47:57.366Z,0.90
2023-01-02T22:50:28.361Z,1.30
2023-01-02T22:52:57.296Z,1.07
2023-01-02T22:55:25.224Z,0.80
2023-01-02T22:57:55.846Z,0.90
2023-01-02T23:00:24.032Z,1.20
2023-01-02T23:02:52.038Z,1.07
2023-01-02T23:05:21.653Z,1.10
2023-01-02T23:07:50.349Z,1.03
2023-01-02T23:10:19.384Z,1.00
2023-01-02T23:12:47.025Z,0.73
2023-01-02T23:15:15.015Z,0.97
2023-01-02T23:18:00.423Z,1.03
2023-01-02T23:20:28.399Z,0.87
2023-01-02T23:22:56.046Z,1.20
2023-01-02T23:25:24.990Z,1.00
2023-01-02T23:27:52.846Z,0.93
2023-01-02T23:30:20.575Z,1.00
2023-01-02T23:32:48.161Z,1.20
2023-01-02T23:35:15.850Z,0.90
2023-01-02T23:37:43.451Z,1.27
2023-01-02T23:40:12.498Z,1.10
2023-01-02T23:42:41.431Z,1.20
2023-01-02T23:45:09.793Z,1.20
2023-01-02T23:47:37.413Z,1.27
2023-01-02T23:50:06.540Z,3.20
2023-01-02T23:52:34.304Z,1.40
2023-01-02T23:55:01.861Z,1.47
2023-01-02T23:57:29.409Z,1.53
2023-01-02T23:59:58.370Z,1.40
